PANC

Anchorage

Airport
ICAO code
PANC
Summary
ICAO Region
NAM
ICAO Territory
Location

Anchorage, Alaska,

Coordinates
61° 10' 51" N , 150° 0' 16" W
KCC
Dfc
Airport CFIT
Altimeter Temperature Error Correction
Airport RI
Runway Misidentification
Airport WX
Volcanic Ash
Metar
Observation
PANC 170953Z 00000KT 10SM FEW005 SCT070 BKN095 12/11 A2940 RMK AO2 RAB0859E23 SLP955 P0000 T01170106
Station
Anchorage, Ted Stevens Anchorage International Airport
Date/Time
2022-08-17 09:53:00
Wind direction
Wind speed
00 kts
Lowest cloud amount
few clouds
Temperature
11.7°C
Dew point
10.6°C
Humidity
92%
Weather condition
n/a

Description

International airport serving Anchorage.

Climatology

Cool continental climate/Subarctic climate (Köppen climate classification Dfc)

Runways

Designator Length Width Surface Rops
07L/25R 3231 46 ASP Yes/Yes
07R/25L 3322 46 ASP Yes/Yes
14/32 3531 46 ASP Yes/Yes

Airport map

Aerial View

SKYbrary Partners:

Safety knowledge contributed by: